createdAt,value
2022-09-06T00:01:23.452Z,1.80
2022-09-06T00:03:51.978Z,1.80
2022-09-06T00:06:21.426Z,1.60
2022-09-06T00:08:49.839Z,1.70
2022-09-06T00:11:18.790Z,1.50
2022-09-06T00:13:47.158Z,1.70
2022-09-06T00:16:17.117Z,1.57
2022-09-06T00:18:47.086Z,1.63
2022-09-06T00:21:17.449Z,1.70
2022-09-06T00:23:45.511Z,1.90
2022-09-06T00:26:13.741Z,1.60
2022-09-06T00:28:41.969Z,1.50
2022-09-06T00:31:11.422Z,1.60
2022-09-06T00:33:39.482Z,1.53
2022-09-06T00:36:09.267Z,1.53
2022-09-06T00:38:37.871Z,1.60
2022-09-06T00:41:06.429Z,1.67
2022-09-06T00:43:34.570Z,1.60
2022-09-06T00:46:03.779Z,1.67
2022-09-06T00:48:31.966Z,1.50
2022-09-06T00:51:02.426Z,1.43
2022-09-06T00:53:32.198Z,1.50
2022-09-06T00:56:00.357Z,1.60
2022-09-06T00:58:29.040Z,1.50
2022-09-06T01:00:57.120Z,1.60
2022-09-06T01:03:25.847Z,1.43
2022-09-06T01:06:00.236Z,1.50
2022-09-06T01:08:37.698Z,1.40
2022-09-06T01:11:32.402Z,1.60
2022-09-06T01:14:07.145Z,1.50
2022-09-06T01:16:39.945Z,1.60
2022-09-06T01:19:33.657Z,1.30
2022-09-06T01:22:13.060Z,1.43
2022-09-06T01:24:54.815Z,1.77
2022-09-06T01:28:14.311Z,1.60
2022-09-06T01:30:49.269Z,1.50
2022-09-06T01:33:23.050Z,1.50
2022-09-06T01:35:54.753Z,1.43
2022-09-06T01:38:23.044Z,1.70
2022-09-06T01:40:51.077Z,1.73
2022-09-06T01:43:23.818Z,1.40
2022-09-06T01:46:01.388Z,1.77
2022-09-06T01:48:38.692Z,1.90
2022-09-06T01:51:14.291Z,1.70
2022-09-06T01:53:50.610Z,1.80
2022-09-06T01:56:26.831Z,1.60
2022-09-06T01:59:03.296Z,1.60
2022-09-06T02:01:37.114Z,1.63
2022-09-06T02:04:10.303Z,1.70
2022-09-06T02:06:43.445Z,1.57
2022-09-06T02:09:15.116Z,1.50
2022-09-06T02:11:47.237Z,1.60
2022-09-06T02:14:18.310Z,1.67
2022-09-06T02:16:48.860Z,1.77
2022-09-06T02:19:21.399Z,1.87
2022-09-06T02:21:50.799Z,1.83
2022-09-06T02:24:22.407Z,1.67
2022-09-06T02:26:50.758Z,1.50
2022-09-06T02:29:18.972Z,1.90
2022-09-06T02:31:50.641Z,1.70
2022-09-06T02:34:19.954Z,1.87
2022-09-06T02:36:48.361Z,1.90
2022-09-06T02:39:16.433Z,1.60
2022-09-06T02:41:45.798Z,1.70
2022-09-06T02:44:13.811Z,1.60
2022-09-06T02:46:41.845Z,1.87
2022-09-06T02:49:11.246Z,1.80
2022-09-06T02:51:40.394Z,1.60
2022-09-06T02:54:08.590Z,1.80
2022-09-06T02:56:37.038Z,1.70
2022-09-06T02:59:05.683Z,1.73
2022-09-06T03:01:34.121Z,1.60
2022-09-06T03:04:02.344Z,1.77
2022-09-06T03:06:31.854Z,1.60
2022-09-06T03:09:00.635Z,1.80
2022-09-06T03:11:29.149Z,1.90
2022-09-06T03:13:57.300Z,1.43
2022-09-06T03:16:25.396Z,1.70
2022-09-06T03:18:53.411Z,1.77
2022-09-06T03:21:21.498Z,1.50
2022-09-06T03:23:51.032Z,1.60
2022-09-06T03:26:19.051Z,1.60
2022-09-06T03:28:47.412Z,1.63
2022-09-06T03:31:15.999Z,1.83
2022-09-06T03:33:44.089Z,1.50
2022-09-06T03:36:12.062Z,1.80
2022-09-06T03:38:40.124Z,1.50
2022-09-06T03:41:09.529Z,1.50
2022-09-06T03:43:37.748Z,1.93
2022-09-06T03:46:05.846Z,1.60
2022-09-06T03:48:33.877Z,1.60
2022-09-06T03:51:01.976Z,1.50
2022-09-06T03:53:30.487Z,1.87
2022-09-06T03:55:59.142Z,1.80
2022-09-06T03:58:31.225Z,1.33
2022-09-06T04:01:07.678Z,1.67
2022-09-06T04:03:36.808Z,1.30
2022-09-06T04:06:08.192Z,1.47
2022-09-06T04:08:36.621Z,1.40
2022-09-06T04:11:04.949Z,1.37
2022-09-06T04:13:35.225Z,1.60
2022-09-06T04:16:03.621Z,1.50
2022-09-06T04:18:31.826Z,1.53
2022-09-06T04:20:59.823Z,1.70
2022-09-06T04:23:29.758Z,1.33
2022-09-06T04:25:59.074Z,1.43
2022-09-06T04:28:27.853Z,1.40
2022-09-06T04:31:03.336Z,1.70
2022-09-06T04:33:33.661Z,1.43
2022-09-06T04:36:03.379Z,1.60
2022-09-06T04:38:34.982Z,1.40
2022-09-06T04:41:03.066Z,1.20
2022-09-06T04:43:31.070Z,1.37
2022-09-06T04:46:06.023Z,1.40
2022-09-06T04:48:34.407Z,1.37
2022-09-06T04:51:02.379Z,1.50
2022-09-06T04:53:30.357Z,1.47
2022-09-06T04:55:58.637Z,1.83
2022-09-06T04:58:26.923Z,1.43
2022-09-06T05:00:54.988Z,1.60
2022-09-06T05:03:24.719Z,1.60
2022-09-06T05:05:52.722Z,1.40
2022-09-06T05:08:20.708Z,1.30
2022-09-06T05:10:52.570Z,1.33
2022-09-06T05:13:20.602Z,1.60
2022-09-06T05:15:48.689Z,1.40
2022-09-06T05:18:16.832Z,1.20
2022-09-06T05:20:52.787Z,1.60
2022-09-06T05:23:20.833Z,1.57
2022-09-06T05:25:48.854Z,1.40
2022-09-06T05:28:17.419Z,1.50
2022-09-06T05:30:45.917Z,1.30
2022-09-06T05:33:15.464Z,1.33
2022-09-06T05:35:43.514Z,1.30
2022-09-06T05:38:12.899Z,1.10
2022-09-06T05:40:40.896Z,1.50
2022-09-06T05:43:08.910Z,1.30
2022-09-06T05:45:36.962Z,1.10
2022-09-06T05:48:05.197Z,1.37
2022-09-06T05:50:33.274Z,1.13
2022-09-06T05:53:01.324Z,1.40
2022-09-06T05:55:30.719Z,1.40
2022-09-06T05:57:58.696Z,1.50
2022-09-06T06:00:26.696Z,1.33
2022-09-06T06:02:54.671Z,1.30
2022-09-06T06:05:22.689Z,1.10
2022-09-06T06:07:50.668Z,1.30
2022-09-06T06:10:18.783Z,1.17
2022-09-06T06:12:48.682Z,1.30
2022-09-06T06:15:16.755Z,1.50
2022-09-06T06:17:44.746Z,1.30
2022-09-06T06:20:12.740Z,1.20
2022-09-06T06:23:05.052Z,1.27
2022-09-06T06:25:33.018Z,1.40
2022-09-06T06:28:02.459Z,1.40
2022-09-06T06:30:30.421Z,1.40
2022-09-06T06:32:58.890Z,1.30
2022-09-06T06:35:26.860Z,1.27
2022-09-06T06:37:54.851Z,1.10
2022-09-06T06:40:23.075Z,1.43
2022-09-06T06:42:51.167Z,1.20
2022-09-06T06:45:22.202Z,1.80
2022-09-06T06:47:51.001Z,1.30
2022-09-06T06:50:19.579Z,1.00
2022-09-06T06:52:47.643Z,1.40
2022-09-06T06:55:15.796Z,1.53
2022-09-06T06:57:43.803Z,1.27
2022-09-06T07:00:12.926Z,1.70
2022-09-06T07:02:42.331Z,1.20
2022-09-06T07:07:58.786Z,1.23
2022-09-06T07:10:34.242Z,1.17
2022-09-06T07:13:02.692Z,1.10
2022-09-06T07:15:30.674Z,1.17
2022-09-06T07:18:00.229Z,1.03
2022-09-06T07:20:28.289Z,1.40
2022-09-06T07:25:53.107Z,1.13
2022-09-06T07:28:21.368Z,1.40
2022-09-06T07:30:49.451Z,1.10
2022-09-06T07:33:18.981Z,1.13
2022-09-06T07:35:59.137Z,1.27
2022-09-06T07:38:27.765Z,1.20
2022-09-06T07:40:56.526Z,1.20
2022-09-06T07:43:24.783Z,1.20
2022-09-06T07:46:00.549Z,1.30
2022-09-06T07:48:31.453Z,1.30
2022-09-06T07:51:11.395Z,1.10
2022-09-06T07:53:40.417Z,1.20
2022-09-06T07:56:10.183Z,1.10
2022-09-06T07:58:39.587Z,1.10
2022-09-06T08:01:30.163Z,1.20
2022-09-06T08:04:00.917Z,1.20
2022-09-06T08:06:31.322Z,1.10
2022-09-06T08:09:01.097Z,1.13
2022-09-06T08:11:30.833Z,1.20
2022-09-06T08:14:00.239Z,1.30
2022-09-06T08:16:29.644Z,1.10
2022-09-06T08:19:00.216Z,1.30
2022-09-06T08:21:29.354Z,1.40
2022-09-06T08:23:59.201Z,1.10
2022-09-06T08:26:28.746Z,1.30
2022-09-06T08:28:58.908Z,1.10
2022-09-06T08:31:27.919Z,1.20
2022-09-06T08:33:56.847Z,1.20
2022-09-06T08:36:29.837Z,1.10
2022-09-06T08:38:59.144Z,1.13
2022-09-06T08:41:29.395Z,0.90
2022-09-06T08:46:52.319Z,1.40
2022-09-06T08:49:20.418Z,1.20
2022-09-06T08:52:01.313Z,1.40
2022-09-06T08:54:33.490Z,1.07
2022-09-06T08:57:06.373Z,1.40
2022-09-06T08:59:39.043Z,1.23
2022-09-06T09:02:15.370Z,1.27
2022-09-06T09:04:46.064Z,1.47
2022-09-06T09:07:32.872Z,1.40
2022-09-06T09:10:04.974Z,1.50
2022-09-06T09:12:33.953Z,1.13
2022-09-06T09:15:08.809Z,1.63
2022-09-06T09:17:37.554Z,1.30
2022-09-06T09:20:06.322Z,1.30
2022-09-06T09:22:36.694Z,1.10
2022-09-06T09:25:06.247Z,1.30
2022-09-06T09:27:34.941Z,1.27
2022-09-06T09:32:54.820Z,1.20
2022-09-06T09:35:27.144Z,1.30
2022-09-06T09:38:07.775Z,1.40
2022-09-06T09:40:41.709Z,1.20
2022-09-06T09:43:18.212Z,1.10
2022-09-06T09:45:47.229Z,1.27
2022-09-06T09:48:22.104Z,1.33
2022-09-06T09:50:50.597Z,1.27
2022-09-06T09:53:22.763Z,1.13
2022-09-06T09:55:55.702Z,1.13
2022-09-06T09:58:32.274Z,1.00
2022-09-06T10:01:14.501Z,1.20
2022-09-06T10:09:31.575Z,1.20
2022-09-06T10:12:01.557Z,1.30
2022-09-06T10:14:31.831Z,1.60
2022-09-06T10:17:00.811Z,1.10
2022-09-06T10:19:44.335Z,1.20
2022-09-06T10:22:28.677Z,1.13
2022-09-06T10:25:26.669Z,1.10
2022-09-06T10:28:29.488Z,1.40
2022-09-06T10:31:30.113Z,1.20
2022-09-06T10:34:08.541Z,1.47
2022-09-06T10:36:38.422Z,1.30
2022-09-06T10:39:17.906Z,1.30
2022-09-06T10:41:59.246Z,1.50
2022-09-06T10:44:38.229Z,1.23
2022-09-06T10:47:12.372Z,1.30
2022-09-06T10:49:42.301Z,1.10
2022-09-06T10:52:13.255Z,1.10
2022-09-06T10:54:42.330Z,1.10
2022-09-06T11:00:12.932Z,1.37
2022-09-06T11:02:47.313Z,1.40
2022-09-06T11:11:04.723Z,1.10
2022-09-06T11:13:34.186Z,1.57
2022-09-06T11:16:05.973Z,1.30
2022-09-06T11:18:38.999Z,1.57
2022-09-06T11:21:29.954Z,1.50
2022-09-06T11:24:06.871Z,1.50
2022-09-06T11:26:44.944Z,1.40
2022-09-06T11:29:21.319Z,1.40
2022-09-06T11:34:53.257Z,1.20
2022-09-06T11:37:26.661Z,1.60
2022-09-06T11:43:13.547Z,1.53
2022-09-06T11:45:45.731Z,1.70
2022-09-06T11:48:36.586Z,1.60
2022-09-06T11:51:07.968Z,1.23
2022-09-06T11:53:58.569Z,1.67
2022-09-06T11:56:31.109Z,1.47
2022-09-06T11:59:02.855Z,1.80
2022-09-06T12:01:42.826Z,1.50
2022-09-06T12:04:12.076Z,1.70
2022-09-06T12:06:41.582Z,1.20
2022-09-06T12:09:30.841Z,1.40
2022-09-06T12:11:59.319Z,1.40
2022-09-06T12:14:33.532Z,1.40
2022-09-06T12:17:31.126Z,1.50
2022-09-06T12:20:06.437Z,1.57
2022-09-06T12:22:54.677Z,1.63
2022-09-06T12:25:54.895Z,1.50
2022-09-06T12:28:37.165Z,1.40
2022-09-06T12:31:26.733Z,1.70
2022-09-06T12:33:56.429Z,1.43
2022-09-06T12:36:29.735Z,1.30
2022-09-06T12:38:59.588Z,2.27
2022-09-06T12:41:30.229Z,1.87
2022-09-06T12:44:00.100Z,1.60
2022-09-06T12:46:29.847Z,1.60
2022-09-06T12:49:04.261Z,1.57
2022-09-06T12:51:32.710Z,1.60
2022-09-06T12:54:02.307Z,1.50
2022-09-06T12:56:32.910Z,1.57
2022-09-06T12:59:14.871Z,1.50
2022-09-06T13:01:46.665Z,1.70
2022-09-06T13:04:20.168Z,1.50
2022-09-06T13:06:48.839Z,1.67
2022-09-06T13:09:20.408Z,2.00
2022-09-06T13:11:51.018Z,1.60
2022-09-06T13:14:21.761Z,1.90
2022-09-06T13:16:52.061Z,1.70
2022-09-06T13:19:32.161Z,1.80
2022-09-06T13:22:00.436Z,1.90
2022-09-06T13:24:47.042Z,1.80
2022-09-06T13:27:25.796Z,2.10
2022-09-06T13:29:58.394Z,1.63
2022-09-06T13:32:27.632Z,1.40
2022-09-06T13:34:59.060Z,1.60
2022-09-06T13:37:28.907Z,1.70
2022-09-06T13:39:57.578Z,1.50
2022-09-06T13:42:27.847Z,1.80
2022-09-06T13:45:00.076Z,1.70
2022-09-06T13:47:30.566Z,1.83
2022-09-06T13:50:00.443Z,1.60
2022-09-06T13:52:28.787Z,1.50
2022-09-06T13:54:56.719Z,1.60
2022-09-06T13:57:24.893Z,1.80
2022-09-06T13:59:52.896Z,1.90
2022-09-06T14:02:21.084Z,1.53
2022-09-06T14:04:49.095Z,1.90
2022-09-06T14:07:18.474Z,1.70
2022-09-06T14:09:47.533Z,1.80
2022-09-06T14:12:15.637Z,1.70
2022-09-06T14:14:44.627Z,1.70
2022-09-06T14:17:12.660Z,1.53
2022-09-06T14:19:40.684Z,1.70
2022-09-06T14:22:08.723Z,1.40
2022-09-06T14:24:38.284Z,1.87
2022-09-06T14:27:07.223Z,1.80
2022-09-06T14:29:35.709Z,1.80
2022-09-06T14:32:04.309Z,1.57
2022-09-06T14:34:32.712Z,1.40
2022-09-06T14:37:00.629Z,1.90
2022-09-06T14:39:28.776Z,1.40
2022-09-06T14:41:58.221Z,1.43
2022-09-06T14:44:26.285Z,1.40
2022-09-06T14:46:54.935Z,1.60
2022-09-06T14:49:23.439Z,1.40
2022-09-06T14:51:53.181Z,2.10
2022-09-06T14:54:24.134Z,1.93
2022-09-06T14:56:55.405Z,1.73
2022-09-06T14:59:24.889Z,1.80
2022-09-06T15:01:52.965Z,1.50
2022-09-06T15:04:20.985Z,1.43
2022-09-06T15:06:50.171Z,1.60
2022-09-06T15:09:18.765Z,1.23
2022-09-06T15:11:48.529Z,1.50
2022-09-06T15:14:18.662Z,1.50
2022-09-06T15:16:55.346Z,1.33
2022-09-06T15:19:24.603Z,1.60
2022-09-06T15:21:52.715Z,2.33
2022-09-06T15:24:20.976Z,1.67
2022-09-06T15:26:49.284Z,1.45
2022-09-06T15:29:17.942Z,1.95
2022-09-06T15:31:50.655Z,1.73
2022-09-06T15:34:19.168Z,1.55
2022-09-06T15:36:47.749Z,1.67
2022-09-06T15:39:16.215Z,1.52
2022-09-06T15:41:44.348Z,1.60
2022-09-06T15:44:13.716Z,2.25
2022-09-06T15:46:44.584Z,1.70
2022-09-06T15:49:16.271Z,1.40
2022-09-06T15:51:44.718Z,1.77
2022-09-06T15:54:14.230Z,1.80
2022-09-06T15:56:42.350Z,2.10
2022-09-06T15:59:10.953Z,1.88
2022-09-06T16:01:39.349Z,2.28
2022-09-06T16:04:08.079Z,2.03
2022-09-06T16:06:39.791Z,2.10
2022-09-06T16:09:09.782Z,1.80
2022-09-06T16:11:38.970Z,2.30
2022-09-06T16:14:08.663Z,2.10
2022-09-06T16:16:37.329Z,2.30
2022-09-06T16:19:05.840Z,2.47
2022-09-06T16:21:38.920Z,2.33
2022-09-06T16:24:10.157Z,2.40
2022-09-06T16:26:39.583Z,2.35
2022-09-06T16:29:09.451Z,2.10
2022-09-06T16:31:40.586Z,2.40
2022-09-06T16:34:09.194Z,2.70
2022-09-06T16:36:37.453Z,2.33
2022-09-06T16:39:06.064Z,2.42
2022-09-06T16:41:40.536Z,2.65
2022-09-06T16:44:09.327Z,2.33
2022-09-06T16:46:40.238Z,2.30
2022-09-06T16:49:08.385Z,2.30
2022-09-06T16:51:36.592Z,2.42
2022-09-06T16:54:04.704Z,2.50
2022-09-06T16:56:36.386Z,2.28
2022-09-06T16:59:06.432Z,2.53
2022-09-06T17:01:35.318Z,2.20
2022-09-06T17:04:04.556Z,2.55
2022-09-06T17:06:33.254Z,2.30
2022-09-06T17:09:03.817Z,2.58
2022-09-06T17:11:32.237Z,2.13
2022-09-06T17:14:01.792Z,2.63
2022-09-06T17:16:47.351Z,2.58
2022-09-06T17:19:15.492Z,2.47
2022-09-06T17:21:43.792Z,2.30
2022-09-06T17:24:12.035Z,1.98
2022-09-06T17:26:41.061Z,2.30
2022-09-06T17:29:10.773Z,2.63
2022-09-06T17:31:39.361Z,2.55
2022-09-06T17:34:07.862Z,2.42
2022-09-06T17:36:36.983Z,2.60
2022-09-06T17:39:06.970Z,2.40
2022-09-06T17:41:37.780Z,2.65
2022-09-06T17:44:06.271Z,3.08
2022-09-06T17:46:41.155Z,3.05
2022-09-06T17:49:12.270Z,2.58
2022-09-06T17:51:40.526Z,2.80
2022-09-06T17:54:09.916Z,2.60
2022-09-06T17:56:38.263Z,2.80
2022-09-06T17:59:08.283Z,2.85
2022-09-06T18:01:41.200Z,2.50
2022-09-06T18:04:10.110Z,2.38
2022-09-06T18:06:40.796Z,2.83
2022-09-06T18:09:11.332Z,2.22
2022-09-06T18:11:40.331Z,2.60
2022-09-06T18:14:09.892Z,2.67
2022-09-06T18:16:41.033Z,2.50
2022-09-06T18:19:09.875Z,2.50
2022-09-06T18:21:41.022Z,2.90
2022-09-06T18:24:09.535Z,2.22
2022-09-06T18:26:38.053Z,2.60
2022-09-06T18:29:08.408Z,2.53
2022-09-06T18:31:36.424Z,2.97
2022-09-06T18:34:07.065Z,2.53
2022-09-06T18:36:35.097Z,2.70
2022-09-06T18:39:04.706Z,2.88
2022-09-06T18:41:50.386Z,2.40
2022-09-06T18:44:19.123Z,2.67
2022-09-06T18:46:47.158Z,2.70
2022-09-06T18:49:17.010Z,3.00
2022-09-06T18:51:45.754Z,2.50
2022-09-06T18:54:14.056Z,2.47
2022-09-06T18:56:42.206Z,2.90
2022-09-06T18:59:10.884Z,2.40
2022-09-06T19:01:39.476Z,2.70
2022-09-06T19:04:08.316Z,2.30
2022-09-06T19:06:38.667Z,2.70
2022-09-06T19:09:08.399Z,2.70
2022-09-06T19:11:36.655Z,2.80
2022-09-06T19:14:05.841Z,2.60
2022-09-06T19:16:33.956Z,2.83
2022-09-06T19:19:06.550Z,2.57
2022-09-06T19:21:39.321Z,2.50
2022-09-06T19:24:11.443Z,2.70
2022-09-06T19:26:41.622Z,3.10
2022-09-06T19:29:13.723Z,2.60
2022-09-06T19:31:42.141Z,2.50
2022-09-06T19:34:10.286Z,2.50
2022-09-06T19:36:38.273Z,2.97
2022-09-06T19:39:07.993Z,2.87
2022-09-06T19:41:39.009Z,2.70
2022-09-06T19:44:08.747Z,2.70
2022-09-06T19:46:37.312Z,2.57
2022-09-06T19:49:08.180Z,2.80
2022-09-06T19:51:36.624Z,2.50
2022-09-06T19:54:05.526Z,2.60
2022-09-06T19:56:35.218Z,2.50
2022-09-06T19:59:06.040Z,2.80
2022-09-06T20:01:35.460Z,2.33
2022-09-06T20:04:05.388Z,2.40
2022-09-06T20:06:33.756Z,2.60
2022-09-06T20:09:03.109Z,2.70
2022-09-06T20:11:32.863Z,2.50
2022-09-06T20:14:01.462Z,2.70
2022-09-06T20:16:31.635Z,2.60
2022-09-06T20:19:00.292Z,2.60
2022-09-06T20:21:28.684Z,2.40
2022-09-06T20:23:58.168Z,2.53
2022-09-06T20:26:27.578Z,2.40
2022-09-06T20:28:56.752Z,2.60
2022-09-06T20:31:25.320Z,2.63
2022-09-06T20:33:54.937Z,2.40
2022-09-06T20:36:22.915Z,2.70
2022-09-06T20:38:50.925Z,2.17
2022-09-06T20:41:20.425Z,2.70
2022-09-06T20:43:52.286Z,2.73
2022-09-06T20:46:21.582Z,2.57
2022-09-06T20:48:49.699Z,2.43
2022-09-06T20:51:21.303Z,2.67
2022-09-06T20:53:52.874Z,2.37
2022-09-06T20:56:22.386Z,2.40
2022-09-06T20:58:51.125Z,2.47
2022-09-06T21:01:22.647Z,2.40
2022-09-06T21:03:52.236Z,2.73
2022-09-06T21:06:22.434Z,2.43
2022-09-06T21:08:50.708Z,2.70
2022-09-06T21:11:19.231Z,2.60
2022-09-06T21:13:49.751Z,2.57
2022-09-06T21:16:23.288Z,2.60
2022-09-06T21:18:52.781Z,2.43
2022-09-06T21:21:22.365Z,2.47
2022-09-06T21:23:50.557Z,2.50
2022-09-06T21:26:19.121Z,2.43
2022-09-06T21:28:47.958Z,2.57
2022-09-06T21:31:18.673Z,2.63
2022-09-06T21:33:48.822Z,2.67
2022-09-06T21:36:18.535Z,2.27
2022-09-06T21:38:49.144Z,2.57
2022-09-06T21:41:18.966Z,2.77
2022-09-06T21:43:47.472Z,2.53
2022-09-06T21:46:16.881Z,2.37
2022-09-06T21:48:46.946Z,2.87
2022-09-06T21:51:16.569Z,2.50
2022-09-06T21:53:46.825Z,2.57
2022-09-06T21:56:18.761Z,2.57
2022-09-06T21:58:47.251Z,2.53
2022-09-06T22:01:16.092Z,2.53
2022-09-06T22:03:44.959Z,2.40
2022-09-06T22:06:14.601Z,2.30
2022-09-06T22:08:43.793Z,2.40
2022-09-06T22:11:12.819Z,2.20
2022-09-06T22:13:42.595Z,2.80
2022-09-06T22:16:11.209Z,2.43
2022-09-06T22:18:39.714Z,2.40
2022-09-06T22:21:09.171Z,2.47
2022-09-06T22:23:37.634Z,2.40
2022-09-06T22:26:07.423Z,2.50
2022-09-06T22:28:35.557Z,2.07
2022-09-06T22:31:05.410Z,2.20
2022-09-06T22:33:33.423Z,2.20
2022-09-06T22:36:01.490Z,2.30
2022-09-06T22:38:30.104Z,2.30
2022-09-06T22:40:58.602Z,2.20
2022-09-06T22:43:27.110Z,2.30
2022-09-06T22:45:55.087Z,2.07
2022-09-06T22:48:24.461Z,2.40
2022-09-06T22:50:52.466Z,2.23
2022-09-06T22:53:20.932Z,2.50
2022-09-06T22:55:49.346Z,2.50
2022-09-06T22:58:17.504Z,2.70
2022-09-06T23:00:45.742Z,2.30
2022-09-06T23:03:13.970Z,2.57
2022-09-06T23:05:43.401Z,2.57
2022-09-06T23:08:11.406Z,2.47
2022-09-06T23:10:41.719Z,2.87
2022-09-06T23:13:10.312Z,2.50
2022-09-06T23:15:40.710Z,2.27
2022-09-06T23:18:09.112Z,2.37
2022-09-06T23:20:37.320Z,2.30
2022-09-06T23:23:07.735Z,2.43
2022-09-06T23:25:38.828Z,2.40
2022-09-06T23:28:06.977Z,3.03
2022-09-06T23:30:38.222Z,2.67
2022-09-06T23:33:06.370Z,2.77
2022-09-06T23:35:34.360Z,2.60
2022-09-06T23:38:02.403Z,2.37
2022-09-06T23:40:31.772Z,2.40
2022-09-06T23:42:59.769Z,2.40
2022-09-06T23:45:27.798Z,2.47
2022-09-06T23:47:55.802Z,2.53
2022-09-06T23:50:23.931Z,2.33
2022-09-06T23:52:51.910Z,2.70
2022-09-06T23:55:19.884Z,2.70
2022-09-06T23:57:49.274Z,2.63
